Aegean Viii — SXKO — position and weather

sailwx.info

Track history (hours):
 
Tides and Currents Weather Stations Pressure Air Temp Water Temp Dewpoint Dewpoint Depression Visibility Wind Speed Wind Dir Waves Ship Positions

Aegean Viii

Last reported at 2017-Mar-29 14:33 UTC. Time now 2017-Mar-29 15:23 UTC.
Position N 38°02' E 023°35'.

Length 12 m; draft 3.8 m.

Type: Tanker. MMSI: 240732000.

Date/timePositionNaut miles runAvg speedWind from/ knotsBaromVisibWave heightAir tempDewpointWater temp
2017-Mar-29 14:33N 38°02' E 023°35'0 0.0
2017-Mar-29 13:33N 38°02' E 023°35'0 0.0
2017-Mar-29 12:34N 38°02' E 023°35'0 0.0
2017-Mar-29 11:33N 38°02' E 023°35'0 0.0
2017-Mar-29 10:34N 38°02' E 023°35'0 0.0
2017-Mar-29 09:33N 38°02' E 023°35'0 0.4
2017-Mar-29 08:33N 38°02' E 023°34'2 1.8
2017-Mar-29 07:34N 38°02' E 023°32'0 0.1
2017-Mar-29 06:32N 38°02' E 023°32'0 0.1
2017-Mar-29 05:33N 38°02' E 023°32'0 0.0
2017-Mar-29 04:34N 38°02' E 023°32'0 0.0
2017-Mar-28 15:28N 38°02' E 023°32'4 4.3
2017-Mar-28 14:33N 37°58' E 023°33'3 2.8
2017-Mar-28 13:33N 37°58' E 023°36'0 0.0
2017-Mar-28 12:33N 37°58' E 023°36'0 0.0
2017-Mar-28 11:33N 37°58' E 023°36'0 0.2
2017-Mar-28 10:33N 37°57' E 023°36'2 1.6
2017-Mar-28 09:33N 37°57' E 023°34'3 3.0
2017-Mar-28 08:32N 38°00' E 023°33'2 2.2
2017-Mar-28 07:33N 38°02' E 023°32'0 0.0
2017-Mar-28 06:34N 38°02' E 023°32'0 0.0
2017-Mar-28 05:34N 38°02' E 023°32'0 0.0
2017-Mar-28 04:33N 38°02' E 023°32'0 0.0
2017-Mar-27 14:33N 38°02' E 023°32'3 3.0
2017-Mar-27 13:33N 38°02' E 023°36'0 0.0
2017-Mar-27 12:33N 38°02' E 023°36'0 0.0
2017-Mar-27 11:34N 38°02' E 023°36'0 0.0
2017-Mar-27 10:32N 38°02' E 023°36'0 0.0
2017-Mar-27 09:33N 38°02' E 023°36'1 0.9
2017-Mar-27 08:33N 38°02' E 023°35'0 0.0
2017-Mar-27 07:33N 38°02' E 023°35'0 0.0
2017-Mar-27 06:34N 38°02' E 023°35'0 0.0
2017-Mar-27 05:33N 38°02' E 023°35'0 0.0
2017-Mar-27 04:33N 38°02' E 023°35'2 2.2
2017-Mar-27 03:33N 38°02' E 023°32'0 0.0
2017-Mar-27 02:33N 38°02' E 023°32'0 0.0
2017-Mar-25 11:15N 38°02' E 023°32'0 0.3
2017-Mar-25 10:33N 38°02' E 023°32'3 3.0
2017-Mar-25 09:33N 37°59' E 023°33'8 8.3
2017-Mar-25 08:33N 37°51' E 023°32'0 0.2
2017-Mar-25 07:33N 37°51' E 023°32'0 0.4
2017-Mar-25 06:34N 37°51' E 023°31'8 7.7
2017-Mar-25 05:33N 37°59' E 023°33'4 3.6
2017-Mar-25 04:33N 38°02' E 023°32'0 0.0
2017-Mar-24 17:33N 38°02' E 023°32'5 4.8
2017-Mar-24 16:33N 37°58' E 023°33'3 2.6
2017-Mar-24 15:33N 37°58' E 023°36'0 0.2
2017-Mar-24 14:33N 37°57' E 023°36'2 2.0
2017-Mar-24 13:33N 37°57' E 023°34'0 0.0
2017-Mar-24 12:34N 37°57' E 023°34'0 0.4
2017-Mar-24 11:33N 37°57' E 023°33'5 5.1
2017-Mar-24 10:32N 38°02' E 023°32'0 0.0
2017-Mar-24 09:33N 38°02' E 023°32'6 5.9
2017-Mar-24 08:33N 37°57' E 023°36'1 0.9
2017-Mar-24 07:34N 37°58' E 023°37'0 0.0
2017-Mar-24 06:33N 37°58' E 023°37'3 3.3
2017-Mar-24 05:33N 37°59' E 023°33'4 3.8
2017-Mar-24 04:33N 38°02' E 023°32'0 0.0
2017-Mar-23 15:13N 38°02' E 023°32'2 2.7
2017-Mar-23 14:33N 38°01' E 023°32'5 4.7
2017-Mar-23 13:33N 37°57' E 023°36'0 0.0
2017-Mar-23 12:33N 37°57' E 023°36'5 5.4
2017-Mar-23 11:32N 37°53' E 023°32'1 1.0
2017-Mar-23 10:33N 37°52' E 023°32'0 0.0
2017-Mar-23 09:33N 37°52' E 023°32'0 0.0
2017-Mar-23 08:33N 37°52' E 023°32'0 0.0
2017-Mar-23 07:33N 37°52' E 023°32'0 0.0
2017-Mar-23 06:33N 37°52' E 023°32'7 6.6
2017-Mar-23 05:33N 37°58' E 023°33'4 3.9
2017-Mar-23 04:34N 38°02' E 023°32'0 0.0
2017-Mar-23 03:33N 38°02' E 023°32'0 0.0
2017-Mar-22 19:22N 38°02' E 023°32'2 2.3
2017-Mar-22 18:33N 38°02' E 023°34'1 1.1
2017-Mar-22 17:33N 38°02' E 023°36'0 0.0
2017-Mar-22 16:33N 38°02' E 023°36'0 0.0
2017-Mar-22 15:33N 38°02' E 023°36'0 0.0
2017-Mar-22 14:33N 38°02' E 023°36'0 0.5
2017-Mar-22 13:33N 38°02' E 023°35'0 0.2
2017-Mar-22 12:33N 38°02' E 023°35'0 0.3
2017-Mar-22 11:33N 38°02' E 023°35'0 0.0
2017-Mar-22 10:33N 38°02' E 023°35'0 0.1
2017-Mar-22 09:33N 38°02' E 023°35'2 2.5
2017-Mar-22 08:33N 38°02' E 023°32'0 0.0
2017-Mar-22 07:33N 38°02' E 023°32'0 0.0
2017-Mar-22 06:33N 38°02' E 023°32'0 0.0
2017-Mar-22 05:33N 38°02' E 023°32'0 0.0
2017-Mar-21 13:27N 38°02' E 023°32'0 0.3
2017-Mar-21 12:32N 38°02' E 023°32'6 6.0
2017-Mar-21 11:34N 37°58' E 023°37'0 0.0
2017-Mar-21 10:32N 37°58' E 023°37'0 0.0
2017-Mar-21 09:33N 37°58' E 023°37'0 0.0
2017-Mar-21 08:30N 37°58' E 023°37'0 0.0
2017-Mar-21 07:33N 37°58' E 023°37'0 0.2
2017-Mar-21 06:33N 37°57' E 023°36'6 6.0
2017-Mar-21 05:33N 38°02' E 023°32'0 0.0
2017-Mar-21 04:33N 38°02' E 023°32'0 0.0
2017-Mar-21 03:33N 38°02' E 023°32'0 0.0
2017-Mar-20 13:15N 38°02' E 023°32'0 0.1
2017-Mar-20 12:33N 38°02' E 023°32'1 1.4
2017-Mar-20 11:33N 38°02' E 023°34'2 1.6
2017-Mar-20 10:33N 38°02' E 023°36'0 0.0
2017-Mar-20 09:33N 38°02' E 023°36'0 0.0
2017-Mar-20 08:33N 38°02' E 023°36'0 0.0
2017-Mar-20 07:33N 38°02' E 023°36'0 0.0
2017-Mar-20 06:33N 38°02' E 023°36'1 0.7
2017-Mar-20 05:33N 38°01' E 023°35'0 0.0
2017-Mar-20 04:33N 38°01' E 023°35'0 0.0
2017-Mar-20 03:32N 38°01' E 023°35'0 0.0
2017-Mar-20 02:33N 38°01' E 023°35'0 0.0
2017-Mar-20 01:34N 38°01' E 023°35'0 0.0
2017-Mar-20 00:33N 38°01' E 023°35'0 0.0
2017-Mar-19 23:33N 38°01' E 023°35'0 0.0
2017-Mar-19 22:33N 38°01' E 023°35'0 0.0
2017-Mar-19 21:33N 38°01' E 023°35'0 0.0
2017-Mar-19 20:34N 38°01' E 023°35'0 0.0
2017-Mar-19 19:33N 38°01' E 023°35'0 0.0
2017-Mar-19 18:32N 38°01' E 023°35'1 0.8
2017-Mar-19 17:33N 38°01' E 023°34'3 3.4
2017-Mar-19 16:33N 37°57' E 023°36'0 0.0
2017-Mar-19 15:33N 37°57' E 023°36'  
Track history (hours):
 
Tides and Currents Weather Stations Pressure Air Temp Water Temp Dewpoint Dewpoint Depression Visibility Wind Speed Wind Dir Waves Ship Positions

Aegean Viii

Last reported at 2017-Mar-29 14:33 UTC. Time now 2017-Mar-29 15:23 UTC.
Position N 38°02' E 023°35'.

Length 12 m; draft 3.8 m.

Type: Tanker. MMSI: 240732000.

Date/timePositionNaut miles runAvg speedWind from/ knotsBaromVisibWave heightAir tempDewpointWater temp
2017-Mar-29 14:33N 38°02' E 023°35'0 0.0
2017-Mar-29 13:33N 38°02' E 023°35'0 0.0
2017-Mar-29 12:34N 38°02' E 023°35'0 0.0
2017-Mar-29 11:33N 38°02' E 023°35'0 0.0
2017-Mar-29 10:34N 38°02' E 023°35'0 0.0
2017-Mar-29 09:33N 38°02' E 023°35'0 0.4
2017-Mar-29 08:33N 38°02' E 023°34'2 1.8
2017-Mar-29 07:34N 38°02' E 023°32'0 0.1
2017-Mar-29 06:32N 38°02' E 023°32'0 0.1
2017-Mar-29 05:33N 38°02' E 023°32'0 0.0
2017-Mar-29 04:34N 38°02' E 023°32'0 0.0
2017-Mar-28 15:28N 38°02' E 023°32'4 4.3
2017-Mar-28 14:33N 37°58' E 023°33'3 2.8
2017-Mar-28 13:33N 37°58' E 023°36'0 0.0
2017-Mar-28 12:33N 37°58' E 023°36'0 0.0
2017-Mar-28 11:33N 37°58' E 023°36'0 0.2
2017-Mar-28 10:33N 37°57' E 023°36'2 1.6
2017-Mar-28 09:33N 37°57' E 023°34'3 3.0
2017-Mar-28 08:32N 38°00' E 023°33'2 2.2
2017-Mar-28 07:33N 38°02' E 023°32'0 0.0
2017-Mar-28 06:34N 38°02' E 023°32'0 0.0
2017-Mar-28 05:34N 38°02' E 023°32'0 0.0
2017-Mar-28 04:33N 38°02' E 023°32'0 0.0
2017-Mar-27 14:33N 38°02' E 023°32'3 3.0
2017-Mar-27 13:33N 38°02' E 023°36'0 0.0
2017-Mar-27 12:33N 38°02' E 023°36'0 0.0
2017-Mar-27 11:34N 38°02' E 023°36'0 0.0
2017-Mar-27 10:32N 38°02' E 023°36'0 0.0
2017-Mar-27 09:33N 38°02' E 023°36'1 0.9
2017-Mar-27 08:33N 38°02' E 023°35'0 0.0
2017-Mar-27 07:33N 38°02' E 023°35'0 0.0
2017-Mar-27 06:34N 38°02' E 023°35'0 0.0
2017-Mar-27 05:33N 38°02' E 023°35'0 0.0
2017-Mar-27 04:33N 38°02' E 023°35'2 2.2
2017-Mar-27 03:33N 38°02' E 023°32'0 0.0
2017-Mar-27 02:33N 38°02' E 023°32'0 0.0
2017-Mar-25 11:15N 38°02' E 023°32'0 0.3
2017-Mar-25 10:33N 38°02' E 023°32'3 3.0
2017-Mar-25 09:33N 37°59' E 023°33'8 8.3
2017-Mar-25 08:33N 37°51' E 023°32'0 0.2
2017-Mar-25 07:33N 37°51' E 023°32'0 0.4
2017-Mar-25 06:34N 37°51' E 023°31'8 7.7
2017-Mar-25 05:33N 37°59' E 023°33'4 3.6
2017-Mar-25 04:33N 38°02' E 023°32'0 0.0
2017-Mar-24 17:33N 38°02' E 023°32'5 4.8
2017-Mar-24 16:33N 37°58' E 023°33'3 2.6
2017-Mar-24 15:33N 37°58' E 023°36'0 0.2
2017-Mar-24 14:33N 37°57' E 023°36'2 2.0
2017-Mar-24 13:33N 37°57' E 023°34'0 0.0
2017-Mar-24 12:34N 37°57' E 023°34'0 0.4
2017-Mar-24 11:33N 37°57' E 023°33'5 5.1
2017-Mar-24 10:32N 38°02' E 023°32'0 0.0
2017-Mar-24 09:33N 38°02' E 023°32'6 5.9
2017-Mar-24 08:33N 37°57' E 023°36'1 0.9
2017-Mar-24 07:34N 37°58' E 023°37'0 0.0
2017-Mar-24 06:33N 37°58' E 023°37'3 3.3
2017-Mar-24 05:33N 37°59' E 023°33'4 3.8
2017-Mar-24 04:33N 38°02' E 023°32'0 0.0
2017-Mar-23 15:13N 38°02' E 023°32'2 2.7
2017-Mar-23 14:33N 38°01' E 023°32'5 4.7
2017-Mar-23 13:33N 37°57' E 023°36'0 0.0
2017-Mar-23 12:33N 37°57' E 023°36'5 5.4
2017-Mar-23 11:32N 37°53' E 023°32'1 1.0
2017-Mar-23 10:33N 37°52' E 023°32'0 0.0
2017-Mar-23 09:33N 37°52' E 023°32'0 0.0
2017-Mar-23 08:33N 37°52' E 023°32'0 0.0
2017-Mar-23 07:33N 37°52' E 023°32'0 0.0
2017-Mar-23 06:33N 37°52' E 023°32'7 6.6
2017-Mar-23 05:33N 37°58' E 023°33'4 3.9
2017-Mar-23 04:34N 38°02' E 023°32'0 0.0
2017-Mar-23 03:33N 38°02' E 023°32'0 0.0
2017-Mar-22 19:22N 38°02' E 023°32'2 2.3
2017-Mar-22 18:33N 38°02' E 023°34'1 1.1
2017-Mar-22 17:33N 38°02' E 023°36'0 0.0
2017-Mar-22 16:33N 38°02' E 023°36'0 0.0
2017-Mar-22 15:33N 38°02' E 023°36'0 0.0
2017-Mar-22 14:33N 38°02' E 023°36'0 0.5
2017-Mar-22 13:33N 38°02' E 023°35'0 0.2
2017-Mar-22 12:33N 38°02' E 023°35'0 0.3
2017-Mar-22 11:33N 38°02' E 023°35'0 0.0
2017-Mar-22 10:33N 38°02' E 023°35'0 0.1
2017-Mar-22 09:33N 38°02' E 023°35'2 2.5
2017-Mar-22 08:33N 38°02' E 023°32'0 0.0
2017-Mar-22 07:33N 38°02' E 023°32'0 0.0
2017-Mar-22 06:33N 38°02' E 023°32'0 0.0
2017-Mar-22 05:33N 38°02' E 023°32'0 0.0
2017-Mar-21 13:27N 38°02' E 023°32'0 0.3
2017-Mar-21 12:32N 38°02' E 023°32'6 6.0
2017-Mar-21 11:34N 37°58' E 023°37'0 0.0
2017-Mar-21 10:32N 37°58' E 023°37'0 0.0
2017-Mar-21 09:33N 37°58' E 023°37'0 0.0
2017-Mar-21 08:30N 37°58' E 023°37'0 0.0
2017-Mar-21 07:33N 37°58' E 023°37'0 0.2
2017-Mar-21 06:33N 37°57' E 023°36'6 6.0
2017-Mar-21 05:33N 38°02' E 023°32'0 0.0
2017-Mar-21 04:33N 38°02' E 023°32'0 0.0
2017-Mar-21 03:33N 38°02' E 023°32'0 0.0
2017-Mar-20 13:15N 38°02' E 023°32'0 0.1
2017-Mar-20 12:33N 38°02' E 023°32'1 1.4
2017-Mar-20 11:33N 38°02' E 023°34'2 1.6
2017-Mar-20 10:33N 38°02' E 023°36'0 0.0
2017-Mar-20 09:33N 38°02' E 023°36'0 0.0
2017-Mar-20 08:33N 38°02' E 023°36'0 0.0
2017-Mar-20 07:33N 38°02' E 023°36'0 0.0
2017-Mar-20 06:33N 38°02' E 023°36'1 0.7
2017-Mar-20 05:33N 38°01' E 023°35'0 0.0
2017-Mar-20 04:33N 38°01' E 023°35'0 0.0
2017-Mar-20 03:32N 38°01' E 023°35'0 0.0
2017-Mar-20 02:33N 38°01' E 023°35'0 0.0
2017-Mar-20 01:34N 38°01' E 023°35'0 0.0
2017-Mar-20 00:33N 38°01' E 023°35'0 0.0
2017-Mar-19 23:33N 38°01' E 023°35'0 0.0
2017-Mar-19 22:33N 38°01' E 023°35'0 0.0
2017-Mar-19 21:33N 38°01' E 023°35'0 0.0
2017-Mar-19 20:34N 38°01' E 023°35'0 0.0
2017-Mar-19 19:33N 38°01' E 023°35'0 0.0
2017-Mar-19 18:32N 38°01' E 023°35'1 0.8
2017-Mar-19 17:33N 38°01' E 023°34'3 3.4
2017-Mar-19 16:33N 37°57' E 023°36'0 0.0
2017-Mar-19 15:33N 37°57' E 023°36'  

Dump ship's entire track history